sensor_id;sensor_type;location;lat;lon;timestamp;temperature;humidity
13322;DHT22;6730;46.248;6.930;2022-08-06T00:02:25;18.40;99.90
13322;DHT22;6730;46.248;6.930;2022-08-06T00:04:51;18.40;99.90
13322;DHT22;6730;46.248;6.930;2022-08-06T00:07:17;18.30;99.90
13322;DHT22;6730;46.248;6.930;2022-08-06T00:09:43;18.60;99.90
13322;DHT22;6730;46.248;6.930;2022-08-06T00:12:10;18.70;99.90
13322;DHT22;6730;46.248;6.930;2022-08-06T00:14:35;18.80;99.90
13322;DHT22;6730;46.248;6.930;2022-08-06T00:17:01;18.70;99.90
13322;DHT22;6730;46.248;6.930;2022-08-06T00:19:27;18.60;99.90
13322;DHT22;6730;46.248;6.930;2022-08-06T00:21:53;18.60;99.90
13322;DHT22;6730;46.248;6.930;2022-08-06T00:24:19;18.30;99.90
13322;DHT22;6730;46.248;6.930;2022-08-06T00:26:46;18.20;99.90
13322;DHT22;6730;46.248;6.930;2022-08-06T00:29:12;17.90;99.90
13322;DHT22;6730;46.248;6.930;2022-08-06T00:31:38;17.70;99.90
13322;DHT22;6730;46.248;6.930;2022-08-06T00:34:03;17.80;99.90
13322;DHT22;6730;46.248;6.930;2022-08-06T00:36:30;18.00;99.90
13322;DHT22;6730;46.248;6.930;2022-08-06T00:39:02;18.00;99.90
13322;DHT22;6730;46.248;6.930;2022-08-06T00:41:29;17.80;99.90
13322;DHT22;6730;46.248;6.930;2022-08-06T00:43:55;17.90;99.90
13322;DHT22;6730;46.248;6.930;2022-08-06T00:46:22;18.10;99.90
13322;DHT22;6730;46.248;6.930;2022-08-06T00:48:48;18.50;99.90
13322;DHT22;6730;46.248;6.930;2022-08-06T00:51:14;18.50;99.90
13322;DHT22;6730;46.248;6.930;2022-08-06T00:53:40;18.60;99.90
13322;DHT22;6730;46.248;6.930;2022-08-06T00:56:06;18.70;99.90
13322;DHT22;6730;46.248;6.930;2022-08-06T00:58:32;18.50;99.90
13322;DHT22;6730;46.248;6.930;2022-08-06T01:00:58;18.60;99.90
13322;DHT22;6730;46.248;6.930;2022-08-06T01:03:23;18.70;99.90
13322;DHT22;6730;46.248;6.930;2022-08-06T01:05:49;18.40;99.90
13322;DHT22;6730;46.248;6.930;2022-08-06T01:08:15;18.20;99.90
13322;DHT22;6730;46.248;6.930;2022-08-06T01:10:41;18.20;99.90
13322;DHT22;6730;46.248;6.930;2022-08-06T01:13:08;18.10;99.90
13322;DHT22;6730;46.248;6.930;2022-08-06T01:15:34;18.20;99.90
13322;DHT22;6730;46.248;6.930;2022-08-06T01:18:13;18.20;99.90
13322;DHT22;6730;46.248;6.930;2022-08-06T01:21:07;18.20;99.90
13322;DHT22;6730;46.248;6.930;2022-08-06T01:26:53;18.00;99.90
13322;DHT22;6730;46.248;6.930;2022-08-06T01:29:26;18.40;99.90
13322;DHT22;6730;46.248;6.930;2022-08-06T01:34:24;18.30;99.90
13322;DHT22;6730;46.248;6.930;2022-08-06T01:36:56;18.00;99.90
13322;DHT22;6730;46.248;6.930;2022-08-06T01:39:26;17.80;99.90
13322;DHT22;6730;46.248;6.930;2022-08-06T01:41:53;18.00;99.90
13322;DHT22;6730;46.248;6.930;2022-08-06T01:44:21;18.00;99.90
13322;DHT22;6730;46.248;6.930;2022-08-06T01:46:55;17.90;99.90
13322;DHT22;6730;46.248;6.930;2022-08-06T01:49:27;18.00;99.90
13322;DHT22;6730;46.248;6.930;2022-08-06T01:51:56;18.30;99.90
13322;DHT22;6730;46.248;6.930;2022-08-06T01:54:23;18.30;99.90
13322;DHT22;6730;46.248;6.930;2022-08-06T01:56:52;18.20;99.90
13322;DHT22;6730;46.248;6.930;2022-08-06T01:59:21;18.50;99.90
13322;DHT22;6730;46.248;6.930;2022-08-06T02:01:51;18.70;99.90
13322;DHT22;6730;46.248;6.930;2022-08-06T02:04:18;18.60;99.90
13322;DHT22;6730;46.248;6.930;2022-08-06T02:06:47;18.40;99.90
13322;DHT22;6730;46.248;6.930;2022-08-06T02:09:18;18.40;99.90
13322;DHT22;6730;46.248;6.930;2022-08-06T02:11:50;18.10;99.90
13322;DHT22;6730;46.248;6.930;2022-08-06T02:14:18;18.00;99.90
13322;DHT22;6730;46.248;6.930;2022-08-06T02:16:44;18.30;99.90
13322;DHT22;6730;46.248;6.930;2022-08-06T02:19:12;18.60;99.90
13322;DHT22;6730;46.248;6.930;2022-08-06T02:21:41;18.60;99.90
13322;DHT22;6730;46.248;6.930;2022-08-06T02:24:09;18.60;99.90
13322;DHT22;6730;46.248;6.930;2022-08-06T02:26:37;18.60;99.90
13322;DHT22;6730;46.248;6.930;2022-08-06T02:29:05;18.50;99.90
13322;DHT22;6730;46.248;6.930;2022-08-06T02:31:32;18.00;99.90
13322;DHT22;6730;46.248;6.930;2022-08-06T02:33:59;17.80;99.90
13322;DHT22;6730;46.248;6.930;2022-08-06T02:36:32;17.80;99.90
13322;DHT22;6730;46.248;6.930;2022-08-06T02:39:03;17.80;99.90
13322;DHT22;6730;46.248;6.930;2022-08-06T02:41:49;17.70;99.90
13322;DHT22;6730;46.248;6.930;2022-08-06T02:44:27;17.60;99.90
13322;DHT22;6730;46.248;6.930;2022-08-06T02:47:06;17.90;99.90
13322;DHT22;6730;46.248;6.930;2022-08-06T02:49:36;18.10;99.90
13322;DHT22;6730;46.248;6.930;2022-08-06T02:52:22;18.00;99.90
13322;DHT22;6730;46.248;6.930;2022-08-06T02:54:53;18.10;99.90
13322;DHT22;6730;46.248;6.930;2022-08-06T02:57:24;18.20;99.90
13322;DHT22;6730;46.248;6.930;2022-08-06T02:59:54;18.00;99.90
13322;DHT22;6730;46.248;6.930;2022-08-06T03:02:25;17.90;99.90
13322;DHT22;6730;46.248;6.930;2022-08-06T03:04:52;17.80;99.90
13322;DHT22;6730;46.248;6.930;2022-08-06T03:07:20;17.90;99.90
13322;DHT22;6730;46.248;6.930;2022-08-06T03:09:48;18.00;99.90
13322;DHT22;6730;46.248;6.930;2022-08-06T03:12:15;18.00;99.90
13322;DHT22;6730;46.248;6.930;2022-08-06T03:14:43;18.10;99.90
13322;DHT22;6730;46.248;6.930;2022-08-06T03:17:12;17.90;99.90
13322;DHT22;6730;46.248;6.930;2022-08-06T03:19:39;17.70;99.90
13322;DHT22;6730;46.248;6.930;2022-08-06T03:22:06;17.70;99.90
13322;DHT22;6730;46.248;6.930;2022-08-06T03:24:35;17.90;99.90
13322;DHT22;6730;46.248;6.930;2022-08-06T03:27:02;17.90;99.90
13322;DHT22;6730;46.248;6.930;2022-08-06T03:29:28;18.10;99.90
13322;DHT22;6730;46.248;6.930;2022-08-06T03:31:55;18.00;99.90
13322;DHT22;6730;46.248;6.930;2022-08-06T03:34:22;17.80;99.90
13322;DHT22;6730;46.248;6.930;2022-08-06T03:36:48;17.70;99.90
13322;DHT22;6730;46.248;6.930;2022-08-06T03:39:15;17.60;99.90
13322;DHT22;6730;46.248;6.930;2022-08-06T03:41:42;17.50;99.90
13322;DHT22;6730;46.248;6.930;2022-08-06T03:44:09;17.70;99.90
13322;DHT22;6730;46.248;6.930;2022-08-06T03:46:44;17.70;99.90
13322;DHT22;6730;46.248;6.930;2022-08-06T03:49:21;17.90;99.90
13322;DHT22;6730;46.248;6.930;2022-08-06T03:51:50;18.00;99.90
13322;DHT22;6730;46.248;6.930;2022-08-06T03:54:21;18.00;99.90
13322;DHT22;6730;46.248;6.930;2022-08-06T03:56:49;17.80;99.90
13322;DHT22;6730;46.248;6.930;2022-08-06T03:59:16;17.60;99.90
13322;DHT22;6730;46.248;6.930;2022-08-06T04:01:45;17.70;99.90
13322;DHT22;6730;46.248;6.930;2022-08-06T04:04:12;17.70;99.90
13322;DHT22;6730;46.248;6.930;2022-08-06T04:06:42;17.80;99.90
13322;DHT22;6730;46.248;6.930;2022-08-06T04:09:08;17.90;99.90
13322;DHT22;6730;46.248;6.930;2022-08-06T04:11:35;17.80;99.90
13322;DHT22;6730;46.248;6.930;2022-08-06T04:14:02;17.50;99.90
13322;DHT22;6730;46.248;6.930;2022-08-06T04:16:30;17.20;99.90
13322;DHT22;6730;46.248;6.930;2022-08-06T04:18:57;17.10;99.90
13322;DHT22;6730;46.248;6.930;2022-08-06T04:21:24;17.00;99.90
13322;DHT22;6730;46.248;6.930;2022-08-06T04:23:51;17.10;99.90
13322;DHT22;6730;46.248;6.930;2022-08-06T04:26:22;17.10;99.90
13322;DHT22;6730;46.248;6.930;2022-08-06T04:28:51;17.40;99.90
13322;DHT22;6730;46.248;6.930;2022-08-06T04:31:19;17.70;99.90
13322;DHT22;6730;46.248;6.930;2022-08-06T04:33:46;17.80;99.90
13322;DHT22;6730;46.248;6.930;2022-08-06T04:36:13;17.90;99.90
13322;DHT22;6730;46.248;6.930;2022-08-06T04:38:40;17.60;99.90
13322;DHT22;6730;46.248;6.930;2022-08-06T04:41:06;17.50;99.90
13322;DHT22;6730;46.248;6.930;2022-08-06T04:43:32;17.50;99.90
13322;DHT22;6730;46.248;6.930;2022-08-06T04:45:58;17.60;99.90
13322;DHT22;6730;46.248;6.930;2022-08-06T04:48:25;17.50;99.90
13322;DHT22;6730;46.248;6.930;2022-08-06T04:50:52;17.30;99.90
13322;DHT22;6730;46.248;6.930;2022-08-06T04:53:19;17.30;99.90
13322;DHT22;6730;46.248;6.930;2022-08-06T04:55:46;17.70;99.90
13322;DHT22;6730;46.248;6.930;2022-08-06T04:58:13;17.90;99.90
13322;DHT22;6730;46.248;6.930;2022-08-06T05:00:46;17.80;99.90
13322;DHT22;6730;46.248;6.930;2022-08-06T05:03:12;17.80;99.90
13322;DHT22;6730;46.248;6.930;2022-08-06T05:05:42;18.00;99.90
13322;DHT22;6730;46.248;6.930;2022-08-06T05:08:08;18.00;99.90
13322;DHT22;6730;46.248;6.930;2022-08-06T05:10:42;18.20;99.90
13322;DHT22;6730;46.248;6.930;2022-08-06T05:13:15;18.30;99.90
13322;DHT22;6730;46.248;6.930;2022-08-06T05:15:43;18.30;99.90
13322;DHT22;6730;46.248;6.930;2022-08-06T05:18:34;18.30;99.90
13322;DHT22;6730;46.248;6.930;2022-08-06T05:21:02;18.70;99.90
13322;DHT22;6730;46.248;6.930;2022-08-06T05:23:39;18.80;99.90
13322;DHT22;6730;46.248;6.930;2022-08-06T05:26:06;18.80;99.90
13322;DHT22;6730;46.248;6.930;2022-08-06T05:28:32;18.40;99.90
13322;DHT22;6730;46.248;6.930;2022-08-06T05:31:00;17.90;99.90
13322;DHT22;6730;46.248;6.930;2022-08-06T05:33:31;17.90;99.90
13322;DHT22;6730;46.248;6.930;2022-08-06T05:36:01;18.30;99.90
13322;DHT22;6730;46.248;6.930;2022-08-06T05:38:27;18.70;99.90
13322;DHT22;6730;46.248;6.930;2022-08-06T05:40:54;19.00;99.90
13322;DHT22;6730;46.248;6.930;2022-08-06T05:43:22;19.30;99.90
13322;DHT22;6730;46.248;6.930;2022-08-06T05:45:49;19.30;99.90
13322;DHT22;6730;46.248;6.930;2022-08-06T05:48:18;19.30;99.90
13322;DHT22;6730;46.248;6.930;2022-08-06T05:50:49;19.60;99.90
13322;DHT22;6730;46.248;6.930;2022-08-06T05:53:24;19.40;99.90
13322;DHT22;6730;46.248;6.930;2022-08-06T05:56:04;19.00;99.90
13322;DHT22;6730;46.248;6.930;2022-08-06T05:58:55;18.80;99.90
13322;DHT22;6730;46.248;6.930;2022-08-06T06:01:22;18.70;99.90
13322;DHT22;6730;46.248;6.930;2022-08-06T06:03:49;18.90;99.90
13322;DHT22;6730;46.248;6.930;2022-08-06T06:06:15;19.20;99.90
13322;DHT22;6730;46.248;6.930;2022-08-06T06:08:41;19.50;99.90
13322;DHT22;6730;46.248;6.930;2022-08-06T06:11:08;19.70;99.90
13322;DHT22;6730;46.248;6.930;2022-08-06T06:13:34;19.90;99.90
13322;DHT22;6730;46.248;6.930;2022-08-06T06:16:33;20.10;99.90
13322;DHT22;6730;46.248;6.930;2022-08-06T06:19:18;20.40;99.90
13322;DHT22;6730;46.248;6.930;2022-08-06T06:22:22;20.50;99.90
13322;DHT22;6730;46.248;6.930;2022-08-06T06:24:55;20.50;99.90
13322;DHT22;6730;46.248;6.930;2022-08-06T06:30:33;20.00;99.90
13322;DHT22;6730;46.248;6.930;2022-08-06T06:36:02;20.40;99.90
13322;DHT22;6730;46.248;6.930;2022-08-06T06:38:55;20.90;99.90
13322;DHT22;6730;46.248;6.930;2022-08-06T06:41:42;21.30;99.90
13322;DHT22;6730;46.248;6.930;2022-08-06T06:47:19;21.30;99.90
13322;DHT22;6730;46.248;6.930;2022-08-06T06:49:49;21.40;99.90
13322;DHT22;6730;46.248;6.930;2022-08-06T06:54:53;22.30;99.90
13322;DHT22;6730;46.248;6.930;2022-08-06T06:57:25;22.50;99.90
13322;DHT22;6730;46.248;6.930;2022-08-06T06:59:55;22.80;99.90
13322;DHT22;6730;46.248;6.930;2022-08-06T07:02:24;22.80;99.90
13322;DHT22;6730;46.248;6.930;2022-08-06T07:04:55;22.90;99.90
13322;DHT22;6730;46.248;6.930;2022-08-06T07:07:21;22.80;99.90
13322;DHT22;6730;46.248;6.930;2022-08-06T07:09:48;22.90;99.90
13322;DHT22;6730;46.248;6.930;2022-08-06T07:12:19;22.80;99.90
13322;DHT22;6730;46.248;6.930;2022-08-06T07:14:49;22.60;99.90
13322;DHT22;6730;46.248;6.930;2022-08-06T07:17:17;22.50;99.90
13322;DHT22;6730;46.248;6.930;2022-08-06T07:19:45;22.90;99.90
13322;DHT22;6730;46.248;6.930;2022-08-06T07:22:13;23.00;99.90
13322;DHT22;6730;46.248;6.930;2022-08-06T07:24:40;23.10;99.90
13322;DHT22;6730;46.248;6.930;2022-08-06T07:27:08;23.20;99.90
13322;DHT22;6730;46.248;6.930;2022-08-06T07:29:35;23.30;99.90
13322;DHT22;6730;46.248;6.930;2022-08-06T07:32:01;23.70;99.90
13322;DHT22;6730;46.248;6.930;2022-08-06T07:34:28;23.80;99.90
13322;DHT22;6730;46.248;6.930;2022-08-06T07:36:56;23.90;99.90
13322;DHT22;6730;46.248;6.930;2022-08-06T07:39:27;23.80;99.90
13322;DHT22;6730;46.248;6.930;2022-08-06T07:41:53;23.50;99.90
13322;DHT22;6730;46.248;6.930;2022-08-06T07:44:21;23.80;99.90
13322;DHT22;6730;46.248;6.930;2022-08-06T07:46:50;24.00;99.90
13322;DHT22;6730;46.248;6.930;2022-08-06T07:49:23;23.60;99.90
13322;DHT22;6730;46.248;6.930;2022-08-06T07:51:50;23.00;99.90
13322;DHT22;6730;46.248;6.930;2022-08-06T07:54:18;22.60;99.90
13322;DHT22;6730;46.248;6.930;2022-08-06T07:56:44;23.20;99.90
13322;DHT22;6730;46.248;6.930;2022-08-06T07:59:10;23.50;99.90
13322;DHT22;6730;46.248;6.930;2022-08-06T08:01:37;23.70;99.90
13322;DHT22;6730;46.248;6.930;2022-08-06T08:04:05;24.20;99.90
13322;DHT22;6730;46.248;6.930;2022-08-06T08:06:51;23.90;99.90
13322;DHT22;6730;46.248;6.930;2022-08-06T08:09:18;24.20;99.90
13322;DHT22;6730;46.248;6.930;2022-08-06T08:11:48;24.30;99.90
13322;DHT22;6730;46.248;6.930;2022-08-06T08:14:16;24.40;99.90
13322;DHT22;6730;46.248;6.930;2022-08-06T08:16:43;24.30;99.90
13322;DHT22;6730;46.248;6.930;2022-08-06T08:19:20;24.00;99.90
13322;DHT22;6730;46.248;6.930;2022-08-06T08:21:50;23.70;99.90
13322;DHT22;6730;46.248;6.930;2022-08-06T08:24:16;23.70;99.90
13322;DHT22;6730;46.248;6.930;2022-08-06T08:26:42;24.20;99.90
13322;DHT22;6730;46.248;6.930;2022-08-06T08:29:08;23.70;99.90
13322;DHT22;6730;46.248;6.930;2022-08-06T08:31:35;23.40;99.90
13322;DHT22;6730;46.248;6.930;2022-08-06T08:34:01;23.40;99.90
13322;DHT22;6730;46.248;6.930;2022-08-06T08:36:27;23.50;99.90
13322;DHT22;6730;46.248;6.930;2022-08-06T08:38:52;24.00;99.90
13322;DHT22;6730;46.248;6.930;2022-08-06T08:41:27;23.60;99.90
13322;DHT22;6730;46.248;6.930;2022-08-06T08:44:00;23.80;99.90
13322;DHT22;6730;46.248;6.930;2022-08-06T08:46:27;24.50;99.90
13322;DHT22;6730;46.248;6.930;2022-08-06T08:48:55;24.60;99.90
13322;DHT22;6730;46.248;6.930;2022-08-06T08:51:25;24.60;99.90
13322;DHT22;6730;46.248;6.930;2022-08-06T08:53:55;24.60;99.90
13322;DHT22;6730;46.248;6.930;2022-08-06T08:56:22;24.40;99.90
13322;DHT22;6730;46.248;6.930;2022-08-06T08:58:48;24.60;99.90
13322;DHT22;6730;46.248;6.930;2022-08-06T09:01:14;24.40;99.90
13322;DHT22;6730;46.248;6.930;2022-08-06T09:03:41;24.50;99.90
13322;DHT22;6730;46.248;6.930;2022-08-06T09:06:07;24.20;99.90
13322;DHT22;6730;46.248;6.930;2022-08-06T09:08:34;23.90;99.90
13322;DHT22;6730;46.248;6.930;2022-08-06T09:11:02;24.60;99.90
13322;DHT22;6730;46.248;6.930;2022-08-06T09:13:28;24.70;99.90
13322;DHT22;6730;46.248;6.930;2022-08-06T09:15:54;24.90;99.90
13322;DHT22;6730;46.248;6.930;2022-08-06T09:18:21;25.30;99.90
13322;DHT22;6730;46.248;6.930;2022-08-06T09:20:48;25.90;99.90
13322;DHT22;6730;46.248;6.930;2022-08-06T09:23:14;26.10;99.90
13322;DHT22;6730;46.248;6.930;2022-08-06T09:25:49;26.30;99.90
13322;DHT22;6730;46.248;6.930;2022-08-06T09:33:25;25.30;99.90
13322;DHT22;6730;46.248;6.930;2022-08-06T09:36:08;25.20;99.90
13322;DHT22;6730;46.248;6.930;2022-08-06T09:38:58;25.60;99.90
13322;DHT22;6730;46.248;6.930;2022-08-06T09:41:29;26.00;99.90
13322;DHT22;6730;46.248;6.930;2022-08-06T09:43:56;25.80;99.90
13322;DHT22;6730;46.248;6.930;2022-08-06T09:46:55;25.30;99.90
13322;DHT22;6730;46.248;6.930;2022-08-06T09:49:23;25.10;99.90
13322;DHT22;6730;46.248;6.930;2022-08-06T09:51:48;25.40;99.90
13322;DHT22;6730;46.248;6.930;2022-08-06T09:54:14;26.00;99.90
13322;DHT22;6730;46.248;6.930;2022-08-06T09:56:44;26.20;99.90
13322;DHT22;6730;46.248;6.930;2022-08-06T09:59:12;26.00;99.90
13322;DHT22;6730;46.248;6.930;2022-08-06T10:01:45;25.60;99.90
13322;DHT22;6730;46.248;6.930;2022-08-06T10:04:29;25.30;99.90
13322;DHT22;6730;46.248;6.930;2022-08-06T10:06:56;25.60;99.90
13322;DHT22;6730;46.248;6.930;2022-08-06T10:09:23;25.00;99.90
13322;DHT22;6730;46.248;6.930;2022-08-06T10:11:49;25.50;99.90
13322;DHT22;6730;46.248;6.930;2022-08-06T10:17:07;25.90;99.90
13322;DHT22;6730;46.248;6.930;2022-08-06T10:19:33;25.50;99.90
13322;DHT22;6730;46.248;6.930;2022-08-06T10:22:16;25.40;99.90
13322;DHT22;6730;46.248;6.930;2022-08-06T10:24:54;25.10;99.90
13322;DHT22;6730;46.248;6.930;2022-08-06T10:27:22;24.40;99.90
13322;DHT22;6730;46.248;6.930;2022-08-06T10:29:53;23.80;99.90
13322;DHT22;6730;46.248;6.930;2022-08-06T10:32:26;24.20;99.90
13322;DHT22;6730;46.248;6.930;2022-08-06T10:34:55;25.20;99.90
13322;DHT22;6730;46.248;6.930;2022-08-06T10:37:21;25.90;99.90
13322;DHT22;6730;46.248;6.930;2022-08-06T10:39:51;26.10;99.90
13322;DHT22;6730;46.248;6.930;2022-08-06T10:42:17;26.10;99.90
13322;DHT22;6730;46.248;6.930;2022-08-06T10:44:45;25.90;99.90
13322;DHT22;6730;46.248;6.930;2022-08-06T10:47:11;26.20;99.90
13322;DHT22;6730;46.248;6.930;2022-08-06T10:49:38;26.00;99.90
13322;DHT22;6730;46.248;6.930;2022-08-06T10:52:04;26.40;99.90
13322;DHT22;6730;46.248;6.930;2022-08-06T10:54:31;26.40;99.90
13322;DHT22;6730;46.248;6.930;2022-08-06T10:56:56;26.30;99.90
13322;DHT22;6730;46.248;6.930;2022-08-06T10:59:23;26.80;99.90
13322;DHT22;6730;46.248;6.930;2022-08-06T11:12:58;25.80;99.90
13322;DHT22;6730;46.248;6.930;2022-08-06T11:15:34;25.90;99.90
13322;DHT22;6730;46.248;6.930;2022-08-06T11:18:06;26.30;99.90
13322;DHT22;6730;46.248;6.930;2022-08-06T11:22:59;26.40;99.90
13322;DHT22;6730;46.248;6.930;2022-08-06T11:25:41;26.70;99.90
13322;DHT22;6730;46.248;6.930;2022-08-06T11:28:08;26.40;99.90
13322;DHT22;6730;46.248;6.930;2022-08-06T11:30:39;26.00;99.90
13322;DHT22;6730;46.248;6.930;2022-08-06T11:33:06;25.60;99.90
13322;DHT22;6730;46.248;6.930;2022-08-06T11:40:27;26.00;99.90
13322;DHT22;6730;46.248;6.930;2022-08-06T11:42:53;26.10;99.90
13322;DHT22;6730;46.248;6.930;2022-08-06T11:45:19;26.10;99.90
13322;DHT22;6730;46.248;6.930;2022-08-06T11:48:04;26.10;99.90
13322;DHT22;6730;46.248;6.930;2022-08-06T11:50:30;26.20;99.90
13322;DHT22;6730;46.248;6.930;2022-08-06T11:52:56;26.30;99.90
13322;DHT22;6730;46.248;6.930;2022-08-06T11:55:21;26.60;99.90
13322;DHT22;6730;46.248;6.930;2022-08-06T11:57:48;26.50;99.90
13322;DHT22;6730;46.248;6.930;2022-08-06T12:00:21;26.50;99.90
13322;DHT22;6730;46.248;6.930;2022-08-06T12:02:53;26.30;99.90
13322;DHT22;6730;46.248;6.930;2022-08-06T12:07:46;26.00;99.90
13322;DHT22;6730;46.248;6.930;2022-08-06T12:10:33;26.10;99.90
13322;DHT22;6730;46.248;6.930;2022-08-06T12:12:58;26.40;99.90
13322;DHT22;6730;46.248;6.930;2022-08-06T12:23:08;26.30;99.90
13322;DHT22;6730;46.248;6.930;2022-08-06T12:25:46;26.30;99.90
13322;DHT22;6730;46.248;6.930;2022-08-06T12:28:15;26.70;99.90
13322;DHT22;6730;46.248;6.930;2022-08-06T12:30:45;26.70;99.90
13322;DHT22;6730;46.248;6.930;2022-08-06T12:33:12;26.40;99.90
13322;DHT22;6730;46.248;6.930;2022-08-06T12:35:50;26.10;99.90
13322;DHT22;6730;46.248;6.930;2022-08-06T12:38:16;26.00;99.90
13322;DHT22;6730;46.248;6.930;2022-08-06T12:41:01;25.80;99.90
13322;DHT22;6730;46.248;6.930;2022-08-06T12:43:30;25.80;99.90
13322;DHT22;6730;46.248;6.930;2022-08-06T12:45:58;26.00;99.90
13322;DHT22;6730;46.248;6.930;2022-08-06T12:48:24;26.10;99.90
13322;DHT22;6730;46.248;6.930;2022-08-06T12:50:55;25.80;99.90
13322;DHT22;6730;46.248;6.930;2022-08-06T12:53:25;25.40;99.90
13322;DHT22;6730;46.248;6.930;2022-08-06T12:55:55;25.60;99.90
13322;DHT22;6730;46.248;6.930;2022-08-06T12:58:26;25.50;99.90
13322;DHT22;6730;46.248;6.930;2022-08-06T13:00:57;25.60;99.90
13322;DHT22;6730;46.248;6.930;2022-08-06T13:03:24;25.60;99.90
13322;DHT22;6730;46.248;6.930;2022-08-06T13:05:55;25.50;99.90
13322;DHT22;6730;46.248;6.930;2022-08-06T13:08:24;25.50;99.90
13322;DHT22;6730;46.248;6.930;2022-08-06T13:10:55;25.50;99.90
13322;DHT22;6730;46.248;6.930;2022-08-06T13:13:28;25.40;99.90
13322;DHT22;6730;46.248;6.930;2022-08-06T13:16:18;25.40;99.90
13322;DHT22;6730;46.248;6.930;2022-08-06T13:19:09;25.30;99.90
13322;DHT22;6730;46.248;6.930;2022-08-06T13:21:36;25.10;99.90
13322;DHT22;6730;46.248;6.930;2022-08-06T13:24:03;24.90;99.90
13322;DHT22;6730;46.248;6.930;2022-08-06T13:26:31;25.00;99.90
13322;DHT22;6730;46.248;6.930;2022-08-06T13:29:15;25.10;99.90
13322;DHT22;6730;46.248;6.930;2022-08-06T13:31:43;24.90;99.90
13322;DHT22;6730;46.248;6.930;2022-08-06T13:34:11;24.90;99.90
13322;DHT22;6730;46.248;6.930;2022-08-06T13:36:39;25.00;99.90
13322;DHT22;6730;46.248;6.930;2022-08-06T13:39:23;25.00;99.90
13322;DHT22;6730;46.248;6.930;2022-08-06T13:42:10;25.00;99.90
13322;DHT22;6730;46.248;6.930;2022-08-06T13:44:41;25.00;99.90
13322;DHT22;6730;46.248;6.930;2022-08-06T13:47:08;25.10;99.90
13322;DHT22;6730;46.248;6.930;2022-08-06T13:49:35;25.30;99.90
13322;DHT22;6730;46.248;6.930;2022-08-06T13:52:02;25.00;99.90
13322;DHT22;6730;46.248;6.930;2022-08-06T13:54:28;25.10;99.90
13322;DHT22;6730;46.248;6.930;2022-08-06T13:56:55;25.10;99.90
13322;DHT22;6730;46.248;6.930;2022-08-06T13:59:23;25.10;99.90
13322;DHT22;6730;46.248;6.930;2022-08-06T14:01:50;25.10;99.90
13322;DHT22;6730;46.248;6.930;2022-08-06T14:04:18;25.20;99.90
13322;DHT22;6730;46.248;6.930;2022-08-06T14:06:46;25.10;99.90
13322;DHT22;6730;46.248;6.930;2022-08-06T14:09:13;24.90;99.90
13322;DHT22;6730;46.248;6.930;2022-08-06T14:11:39;24.90;99.90
13322;DHT22;6730;46.248;6.930;2022-08-06T14:14:04;24.90;99.90
13322;DHT22;6730;46.248;6.930;2022-08-06T14:16:30;25.00;99.90
13322;DHT22;6730;46.248;6.930;2022-08-06T14:18:56;25.00;99.90
13322;DHT22;6730;46.248;6.930;2022-08-06T14:21:22;25.10;99.90
13322;DHT22;6730;46.248;6.930;2022-08-06T14:23:47;25.30;99.90
13322;DHT22;6730;46.248;6.930;2022-08-06T14:26:13;25.40;99.90
13322;DHT22;6730;46.248;6.930;2022-08-06T14:28:39;25.40;99.90
13322;DHT22;6730;46.248;6.930;2022-08-06T14:31:04;25.50;99.90
13322;DHT22;6730;46.248;6.930;2022-08-06T14:33:30;25.50;99.90
13322;DHT22;6730;46.248;6.930;2022-08-06T14:35:56;25.30;99.90
13322;DHT22;6730;46.248;6.930;2022-08-06T14:38:22;25.20;99.90
13322;DHT22;6730;46.248;6.930;2022-08-06T14:40:48;25.00;99.90
13322;DHT22;6730;46.248;6.930;2022-08-06T14:43:32;24.80;99.90
13322;DHT22;6730;46.248;6.930;2022-08-06T14:46:16;24.70;99.90
13322;DHT22;6730;46.248;6.930;2022-08-06T14:48:41;24.80;99.90
13322;DHT22;6730;46.248;6.930;2022-08-06T14:51:07;25.00;99.90
13322;DHT22;6730;46.248;6.930;2022-08-06T14:53:34;25.10;99.90
13322;DHT22;6730;46.248;6.930;2022-08-06T14:55:59;25.20;99.90
13322;DHT22;6730;46.248;6.930;2022-08-06T14:58:25;25.20;99.90
13322;DHT22;6730;46.248;6.930;2022-08-06T15:00:51;25.20;99.90
13322;DHT22;6730;46.248;6.930;2022-08-06T15:03:17;25.10;99.90
13322;DHT22;6730;46.248;6.930;2022-08-06T15:05:44;25.10;99.90
13322;DHT22;6730;46.248;6.930;2022-08-06T15:08:10;25.10;99.90
13322;DHT22;6730;46.248;6.930;2022-08-06T15:10:36;24.90;99.90
13322;DHT22;6730;46.248;6.930;2022-08-06T15:13:04;24.90;99.90
13322;DHT22;6730;46.248;6.930;2022-08-06T15:15:31;25.20;99.90
13322;DHT22;6730;46.248;6.930;2022-08-06T15:17:57;25.10;99.90
13322;DHT22;6730;46.248;6.930;2022-08-06T15:20:22;25.00;99.90
13322;DHT22;6730;46.248;6.930;2022-08-06T15:22:48;25.00;99.90
13322;DHT22;6730;46.248;6.930;2022-08-06T15:25:15;25.10;99.90
13322;DHT22;6730;46.248;6.930;2022-08-06T15:27:46;25.00;99.90
13322;DHT22;6730;46.248;6.930;2022-08-06T15:30:13;25.00;99.90
13322;DHT22;6730;46.248;6.930;2022-08-06T15:32:40;25.10;99.90
13322;DHT22;6730;46.248;6.930;2022-08-06T15:35:06;25.10;99.90
13322;DHT22;6730;46.248;6.930;2022-08-06T15:37:32;25.30;99.90
13322;DHT22;6730;46.248;6.930;2022-08-06T15:39:57;25.20;99.90
13322;DHT22;6730;46.248;6.930;2022-08-06T15:42:23;25.10;99.90
13322;DHT22;6730;46.248;6.930;2022-08-06T15:44:50;25.10;99.90
13322;DHT22;6730;46.248;6.930;2022-08-06T15:47:16;25.10;99.90
13322;DHT22;6730;46.248;6.930;2022-08-06T15:49:42;25.10;99.90
13322;DHT22;6730;46.248;6.930;2022-08-06T15:52:08;25.00;99.90
13322;DHT22;6730;46.248;6.930;2022-08-06T15:54:34;25.00;99.90
13322;DHT22;6730;46.248;6.930;2022-08-06T15:57:00;25.00;99.90
13322;DHT22;6730;46.248;6.930;2022-08-06T15:59:26;24.90;99.90
13322;DHT22;6730;46.248;6.930;2022-08-06T16:01:52;25.00;99.90
13322;DHT22;6730;46.248;6.930;2022-08-06T16:04:17;24.90;99.90
13322;DHT22;6730;46.248;6.930;2022-08-06T16:06:43;24.90;99.90
13322;DHT22;6730;46.248;6.930;2022-08-06T16:09:09;24.90;99.90
13322;DHT22;6730;46.248;6.930;2022-08-06T16:11:34;25.10;99.90
13322;DHT22;6730;46.248;6.930;2022-08-06T16:14:00;25.10;99.90
13322;DHT22;6730;46.248;6.930;2022-08-06T16:16:26;24.90;99.90
13322;DHT22;6730;46.248;6.930;2022-08-06T16:18:51;24.40;99.90
13322;DHT22;6730;46.248;6.930;2022-08-06T16:21:17;23.70;99.90
13322;DHT22;6730;46.248;6.930;2022-08-06T16:23:43;23.40;99.90
13322;DHT22;6730;46.248;6.930;2022-08-06T16:26:09;23.30;99.90
13322;DHT22;6730;46.248;6.930;2022-08-06T16:28:34;23.30;99.90
13322;DHT22;6730;46.248;6.930;2022-08-06T16:31:00;23.30;99.90
13322;DHT22;6730;46.248;6.930;2022-08-06T16:33:26;23.30;99.90
13322;DHT22;6730;46.248;6.930;2022-08-06T16:35:51;23.70;99.90
13322;DHT22;6730;46.248;6.930;2022-08-06T16:38:17;24.30;99.90
13322;DHT22;6730;46.248;6.930;2022-08-06T16:40:43;24.70;99.90
13322;DHT22;6730;46.248;6.930;2022-08-06T16:43:09;24.30;99.90
13322;DHT22;6730;46.248;6.930;2022-08-06T16:45:35;24.00;99.90
13322;DHT22;6730;46.248;6.930;2022-08-06T16:48:01;24.20;99.90
13322;DHT22;6730;46.248;6.930;2022-08-06T16:50:27;24.60;99.90
13322;DHT22;6730;46.248;6.930;2022-08-06T16:52:53;25.00;99.90